Time;durP1;ratioP1;P1;durP2;ratioP2;P2;SDS_P1;SDS_P2;PMS_P1;PMS_P2;Temp;Humidity;BMP_temperature;BMP_pressure;BME280_temperature;BME280_humidity;BME280_pressure;Samples;Min_cycle;Max_cycle;Signal;HPM_P1;HPM_P2
2022/09/17 01:18:55;;;;;;;3.43;1.70;;;;;;;;;;4915982;29;20289;-90
2022/09/17 01:21:59;;;;;;;2.97;1.63;;;;;;;;;;4932463;29;20194;-90
2022/09/17 01:24:28;;;;;;;3.73;1.60;;;;;;;;;;4932246;29;20190;-89
2022/09/17 01:27:24;;;;;;;3.97;1.80;;;;;;;;;;4916405;29;20717;-89
2022/09/17 01:30:13;;;;;;;3.90;1.87;;;;;;;;;;4916046;29;20689;-90
2022/09/17 01:32:45;;;;;;;3.93;1.83;;;;;;;;;;4880909;29;20192;-90
2022/09/17 03:42:20;;;;;;;9.83;3.40;;;;;;;;;;4954365;29;20566;-88
2022/09/17 03:44:46;;;;;;;8.47;2.90;;;;;;;;;;4960095;28;20185;-88
2022/09/17 03:47:15;;;;;;;16.33;3.97;;;;;;;;;;4954539;28;20720;-88
2022/09/17 03:49:41;;;;;;;11.77;2.70;;;;;;;;;;4954135;29;20201;-88
2022/09/17 03:52:07;;;;;;;15.67;3.47;;;;;;;;;;4954824;29;20193;-88
2022/09/17 03:54:33;;;;;;;10.43;3.07;;;;;;;;;;4954721;29;20202;-87
2022/09/17 03:56:59;;;;;;;9.73;3.03;;;;;;;;;;4953084;29;20304;-88
2022/09/17 03:59:26;;;;;;;10.00;2.87;;;;;;;;;;4953313;29;20273;-88
2022/09/17 04:01:52;;;;;;;11.70;2.70;;;;;;;;;;4938842;29;20252;-88
2022/09/17 04:04:18;;;;;;;12.07;2.83;;;;;;;;;;4954398;29;20683;-89
2022/09/17 04:06:44;;;;;;;13.77;3.13;;;;;;;;;;4938534;29;20213;-87
2022/09/17 04:09:10;;;;;;;12.07;3.37;;;;;;;;;;4954391;29;20213;-90
2022/09/17 04:11:36;;;;;;;10.20;2.57;;;;;;;;;;4954350;29;20691;-89
2022/09/17 04:14:03;;;;;;;14.80;2.90;;;;;;;;;;4954451;29;20192;-89
2022/09/17 04:16:29;;;;;;;12.83;2.87;;;;;;;;;;4938340;29;20217;-89
2022/09/17 04:18:58;;;;;;;11.10;2.50;;;;;;;;;;4955510;28;20185;-89
2022/09/17 04:21:26;;;;;;;12.77;3.50;;;;;;;;;;4954345;29;20196;-90
2022/09/17 04:23:53;;;;;;;7.97;2.63;;;;;;;;;;4954449;29;20196;-89
2022/09/17 04:26:19;;;;;;;16.30;2.70;;;;;;;;;;4954160;28;20218;-89
2022/09/17 04:28:45;;;;;;;10.77;2.83;;;;;;;;;;4955671;28;20664;-89
2022/09/17 04:31:11;;;;;;;10.27;2.40;;;;;;;;;;4954073;29;20196;-90
2022/09/17 04:33:37;;;;;;;13.33;3.17;;;;;;;;;;4954261;29;20185;-89
2022/09/17 04:36:04;;;;;;;9.30;2.50;;;;;;;;;;4954321;29;20274;-90
2022/09/17 04:38:30;;;;;;;7.93;2.07;;;;;;;;;;4954185;29;20232;-89
2022/09/17 04:40:56;;;;;;;13.13;3.03;;;;;;;;;;4955325;29;20205;-89
2022/09/17 04:43:22;;;;;;;9.83;2.23;;;;;;;;;;4958046;29;20336;-89
2022/09/17 04:45:49;;;;;;;14.93;2.70;;;;;;;;;;4954241;29;20213;-89
2022/09/17 04:48:16;;;;;;;11.27;2.63;;;;;;;;;;4953987;28;20197;-89
2022/09/17 04:50:42;;;;;;;14.23;3.17;;;;;;;;;;4953878;29;20181;-89
2022/09/17 04:53:08;;;;;;;8.73;2.10;;;;;;;;;;4954069;29;20644;-89
2022/09/17 04:55:34;;;;;;;10.30;2.50;;;;;;;;;;4953885;29;20221;-89
2022/09/17 04:58:00;;;;;;;11.17;2.77;;;;;;;;;;4954013;29;20628;-89
2022/09/17 05:00:26;;;;;;;9.00;3.20;;;;;;;;;;4953851;29;20189;-89
2022/09/17 05:02:54;;;;;;;9.27;2.33;;;;;;;;;;4953792;29;20182;-89
2022/09/17 05:05:20;;;;;;;8.80;2.90;;;;;;;;;;4937986;29;20245;-89
2022/09/17 05:07:46;;;;;;;9.57;2.47;;;;;;;;;;4953667;29;20693;-89
2022/09/17 05:10:14;;;;;;;9.60;2.33;;;;;;;;;;4953493;29;20796;-89
2022/09/17 05:12:40;;;;;;;13.50;2.60;;;;;;;;;;4953518;29;20181;-89
2022/09/17 05:15:06;;;;;;;12.40;2.63;;;;;;;;;;4953590;29;20212;-90
2022/09/17 05:17:33;;;;;;;13.03;2.80;;;;;;;;;;4953539;29;20186;-90
2022/09/17 05:19:59;;;;;;;10.77;2.33;;;;;;;;;;4953566;29;20668;-90
2022/09/17 05:22:26;;;;;;;13.43;2.47;;;;;;;;;;4953412;29;20209;-90
2022/09/17 05:24:53;;;;;;;12.60;2.50;;;;;;;;;;4953357;29;20212;-90
2022/09/17 05:27:19;;;;;;;10.20;2.40;;;;;;;;;;4937789;29;20555;-89
2022/09/17 05:29:46;;;;;;;10.53;2.33;;;;;;;;;;4953294;29;20348;-90
2022/09/17 05:32:12;;;;;;;8.23;1.93;;;;;;;;;;4953463;29;20228;-90
2022/09/17 05:34:42;;;;;;;11.17;2.00;;;;;;;;;;4953302;29;20648;-90
2022/09/17 05:37:10;;;;;;;11.97;2.23;;;;;;;;;;4954503;28;20808;-89
2022/09/17 05:39:36;;;;;;;16.57;2.77;;;;;;;;;;4957375;29;20632;-89
2022/09/17 05:42:33;;;;;;;9.63;2.00;;;;;;;;;;4957531;29;20205;-89
2022/09/17 05:45:00;;;;;;;12.27;2.10;;;;;;;;;;4957142;28;20247;-89
2022/09/17 05:47:26;;;;;;;9.70;2.20;;;;;;;;;;4957101;28;20189;-90
2022/09/17 05:50:00;;;;;;;12.47;2.10;;;;;;;;;;4957220;29;20216;-90
2022/09/17 05:55:30;;;;;;;14.37;2.70;;;;;;;;;;4958057;29;20220;-89
2022/09/17 05:57:57;;;;;;;9.83;2.43;;;;;;;;;;4957321;29;20240;-91
2022/09/17 06:00:23;;;;;;;9.67;2.43;;;;;;;;;;4941406;29;20204;-90
2022/09/17 06:02:56;;;;;;;9.07;2.00;;;;;;;;;;4957147;29;20185;-89
2022/09/17 06:05:23;;;;;;;13.23;2.73;;;;;;;;;;4956914;29;20205;-88
2022/09/17 06:07:49;;;;;;;14.53;2.90;;;;;;;;;;4941172;29;20576;-89
2022/09/17 06:10:15;;;;;;;11.93;2.70;;;;;;;;;;4940882;29;20323;-89
2022/09/17 06:12:41;;;;;;;9.70;2.10;;;;;;;;;;4956786;29;20185;-88
2022/09/17 06:15:08;;;;;;;6.97;2.33;;;;;;;;;;4966581;28;20205;-89
2022/09/17 06:17:36;;;;;;;13.00;2.30;;;;;;;;;;4959794;28;20194;-89
2022/09/17 06:20:04;;;;;;;8.47;2.07;;;;;;;;;;4956845;29;20216;-90
2022/09/17 06:22:31;;;;;;;12.50;2.60;;;;;;;;;;4961882;28;20200;-90
2022/09/17 06:25:01;;;;;;;11.73;2.27;;;;;;;;;;4975806;28;20239;-90
2022/09/17 06:27:31;;;;;;;8.83;1.73;;;;;;;;;;4963982;28;20630;-89
2022/09/17 06:29:57;;;;;;;9.30;2.67;;;;;;;;;;4956643;29;20706;-90
2022/09/17 06:32:23;;;;;;;10.93;2.43;;;;;;;;;;4956349;29;20193;-90
2022/09/17 06:34:50;;;;;;;9.60;2.63;;;;;;;;;;4957676;28;20186;-90
2022/09/17 06:37:16;;;;;;;10.87;2.20;;;;;;;;;;4956252;29;20555;-89
2022/09/17 06:39:44;;;;;;;10.33;1.77;;;;;;;;;;4957861;28;20201;-90
2022/09/17 06:42:11;;;;;;;9.73;2.27;;;;;;;;;;4956196;29;20201;-89
2022/09/17 06:44:39;;;;;;;8.03;2.13;;;;;;;;;;4956163;29;20197;-89
2022/09/17 06:47:06;;;;;;;9.27;1.73;;;;;;;;;;4973715;28;20205;-90
2022/09/17 06:49:32;;;;;;;9.53;2.13;;;;;;;;;;4965278;28;20216;-88
2022/09/17 06:51:58;;;;;;;11.50;2.03;;;;;;;;;;4954759;28;20649;-89
2022/09/17 06:54:37;;;;;;;10.77;2.63;;;;;;;;;;4953750;28;20178;-88
2022/09/17 06:57:03;;;;;;;8.87;2.03;;;;;;;;;;4954520;29;20607;-91
2022/09/17 06:59:29;;;;;;;9.80;2.10;;;;;;;;;;4956203;29;20260;-89
2022/09/17 07:01:55;;;;;;;11.00;2.30;;;;;;;;;;4950756;28;20189;-88
2022/09/17 07:04:21;;;;;;;10.20;2.20;;;;;;;;;;4952113;28;20561;-89
2022/09/17 07:06:47;;;;;;;8.87;2.50;;;;;;;;;;4951245;28;20220;-88
2022/09/17 07:09:13;;;;;;;9.03;2.10;;;;;;;;;;4951785;28;20300;-89
2022/09/17 07:11:39;;;;;;;10.07;1.90;;;;;;;;;;4953383;28;20260;-88
2022/09/17 07:14:05;;;;;;;8.93;2.03;;;;;;;;;;4951717;28;20194;-88
2022/09/17 07:16:34;;;;;;;9.93;2.63;;;;;;;;;;4950835;28;20237;-88
2022/09/17 07:19:01;;;;;;;10.23;2.37;;;;;;;;;;4951589;28;20195;-89
2022/09/17 07:21:27;;;;;;;11.67;2.50;;;;;;;;;;4951334;29;20192;-89
2022/09/17 07:23:53;;;;;;;8.90;2.27;;;;;;;;;;4951110;28;20695;-90
2022/09/17 07:26:19;;;;;;;11.30;2.57;;;;;;;;;;4951689;28;20590;-88
2022/09/17 07:28:45;;;;;;;11.63;2.73;;;;;;;;;;4952182;28;20281;-89
2022/09/17 07:31:12;;;;;;;6.83;1.90;;;;;;;;;;4951388;29;20269;-88
2022/09/17 07:33:38;;;;;;;9.00;2.00;;;;;;;;;;4952051;28;20264;-88
2022/09/17 07:36:19;;;;;;;8.87;1.80;;;;;;;;;;4952315;28;20216;-88
2022/09/17 07:38:46;;;;;;;13.33;2.93;;;;;;;;;;4952658;28;20186;-90
2022/09/17 07:41:13;;;;;;;10.97;2.17;;;;;;;;;;4953437;28;20217;-87
2022/09/17 07:43:40;;;;;;;12.00;2.30;;;;;;;;;;4952133;28;20197;-88
2022/09/17 07:46:07;;;;;;;12.10;2.13;;;;;;;;;;4951903;28;20214;-90
2022/09/17 07:48:33;;;;;;;6.73;2.20;;;;;;;;;;4951865;28;20186;-87
2022/09/17 07:50:59;;;;;;;8.93;2.40;;;;;;;;;;4952563;28;20206;-88
2022/09/17 07:56:10;;;;;;;7.37;2.60;;;;;;;;;;4950130;28;20268;-87
2022/09/17 07:58:35;;;;;;;10.33;2.30;;;;;;;;;;4948814;28;20185;-86
2022/09/17 08:01:07;;;;;;;10.90;2.33;;;;;;;;;;4946183;28;20192;-87
2022/09/17 08:03:33;;;;;;;7.47;2.20;;;;;;;;;;4945803;28;21146;-85
2022/09/17 08:06:03;;;;;;;8.90;2.03;;;;;;;;;;4943293;28;20205;-86
2022/09/17 08:08:30;;;;;;;10.70;3.13;;;;;;;;;;4944578;28;20977;-86
2022/09/17 08:10:59;;;;;;;7.90;1.93;;;;;;;;;;4944977;28;20749;-86
2022/09/17 08:13:25;;;;;;;8.30;2.57;;;;;;;;;;4946683;28;20186;-85
2022/09/17 08:15:51;;;;;;;7.00;2.03;;;;;;;;;;4945188;28;20216;-86
2022/09/17 08:18:17;;;;;;;11.73;2.27;;;;;;;;;;4946976;28;20272;-86
2022/09/17 08:20:43;;;;;;;7.47;2.10;;;;;;;;;;4944799;28;20293;-86
2022/09/17 08:23:09;;;;;;;7.70;1.90;;;;;;;;;;4944088;28;20244;-86
2022/09/17 08:25:35;;;;;;;6.30;1.77;;;;;;;;;;4943672;28;20217;-85
2022/09/17 08:28:01;;;;;;;7.37;1.83;;;;;;;;;;4946031;28;20315;-85
2022/09/17 08:30:27;;;;;;;7.33;1.80;;;;;;;;;;4945286;28;20227;-87
2022/09/17 08:32:55;;;;;;;7.73;1.97;;;;;;;;;;4947159;28;20197;-86
2022/09/17 08:35:23;;;;;;;7.83;1.90;;;;;;;;;;4944381;28;20205;-87
2022/09/17 08:37:49;;;;;;;7.43;2.20;;;;;;;;;;4944558;28;20764;-86
2022/09/17 08:40:18;;;;;;;7.82;1.90;;;;;;;;;;4944904;28;20288;-88
2022/09/17 08:43:04;;;;;;;10.03;2.53;;;;;;;;;;4946706;28;20882;-86
2022/09/17 08:45:30;;;;;;;12.63;2.75;;;;;;;;;;4947487;28;20268;-86
2022/09/17 08:48:04;;;;;;;8.32;2.08;;;;;;;;;;4947333;28;20197;-86
2022/09/17 08:50:37;;;;;;;9.33;1.90;;;;;;;;;;4947086;28;20650;-86
2022/09/17 08:53:16;;;;;;;11.03;2.40;;;;;;;;;;4946571;28;20196;-86
2022/09/17 08:55:53;;;;;;;7.43;2.47;;;;;;;;;;4942890;28;20237;-87
2022/09/17 08:58:30;;;;;;;12.15;2.70;;;;;;;;;;4944673;28;20213;-87
2022/09/17 09:01:02;;;;;;;10.13;2.35;;;;;;;;;;4943352;28;20528;-87
2022/09/17 09:03:40;;;;;;;8.93;1.85;;;;;;;;;;4944987;28;20601;-85
2022/09/17 09:06:07;;;;;;;8.82;1.90;;;;;;;;;;4946564;28;20213;-86
2022/09/17 09:08:34;;;;;;;9.93;2.10;;;;;;;;;;4947147;28;20199;-87
2022/09/17 09:11:01;;;;;;;7.90;1.80;;;;;;;;;;4946538;28;20213;-86
2022/09/17 09:13:36;;;;;;;10.20;2.42;;;;;;;;;;4946214;28;20560;-87
2022/09/17 09:16:04;;;;;;;6.85;1.67;;;;;;;;;;4946905;28;20208;-88
2022/09/17 09:18:30;;;;;;;10.60;2.15;;;;;;;;;;4947046;28;20190;-87
2022/09/17 09:23:54;;;;;;;7.47;1.75;;;;;;;;;;4948920;28;20240;-87
2022/09/17 09:26:22;;;;;;;7.85;2.03;;;;;;;;;;4947320;28;20207;-87
2022/09/17 09:29:02;;;;;;;7.65;1.90;;;;;;;;;;4947044;28;20205;-87
2022/09/17 09:31:40;;;;;;;9.23;2.13;;;;;;;;;;4945948;28;20898;-88
2022/09/17 09:34:09;;;;;;;9.63;2.17;;;;;;;;;;4947745;28;20271;-90
2022/09/17 09:36:38;;;;;;;7.78;2.53;;;;;;;;;;4946182;28;20198;-88
2022/09/17 09:39:13;;;;;;;8.20;2.00;;;;;;;;;;4947013;28;20722;-89
2022/09/17 09:41:43;;;;;;;8.75;1.88;;;;;;;;;;4946819;28;20231;-89
2022/09/17 09:44:10;;;;;;;9.57;2.20;;;;;;;;;;4947511;28;20281;-88
2022/09/17 09:46:37;;;;;;;11.05;2.20;;;;;;;;;;4946277;28;20618;-88
2022/09/17 09:49:15;;;;;;;8.25;1.80;;;;;;;;;;4945791;29;20233;-88
2022/09/17 09:51:41;;;;;;;6.72;1.70;;;;;;;;;;4944880;28;20336;-89
2022/09/17 09:54:13;;;;;;;7.90;2.30;;;;;;;;;;4945338;28;20620;-87
2022/09/17 09:56:48;;;;;;;7.65;2.05;;;;;;;;;;4944437;28;20202;-89
2022/09/17 09:59:14;;;;;;;7.47;1.98;;;;;;;;;;4942374;28;20197;-88
2022/09/17 10:01:41;;;;;;;10.45;2.03;;;;;;;;;;4945970;28;20204;-89
2022/09/17 10:04:25;;;;;;;8.90;2.10;;;;;;;;;;4944180;28;20751;-88
2022/09/17 10:07:03;;;;;;;8.90;2.55;;;;;;;;;;4944572;28;20296;-88
2022/09/17 10:09:31;;;;;;;9.85;2.10;;;;;;;;;;4945228;28;20213;-88
2022/09/17 10:12:09;;;;;;;10.10;2.25;;;;;;;;;;4946879;28;20267;-89
2022/09/17 10:14:36;;;;;;;9.45;1.85;;;;;;;;;;4946060;28;20189;-88
2022/09/17 10:17:15;;;;;;;7.20;1.92;;;;;;;;;;4945665;28;20221;-88
2022/09/17 10:19:42;;;;;;;6.70;1.73;;;;;;;;;;4946943;28;20182;-90
2022/09/17 10:22:26;;;;;;;11.50;2.45;;;;;;;;;;4946650;28;20635;-89
2022/09/17 10:25:00;;;;;;;7.43;2.03;;;;;;;;;;4949455;28;20193;-90
2022/09/17 10:27:28;;;;;;;8.73;1.75;;;;;;;;;;4950162;28;20178;-89
2022/09/17 10:30:14;;;;;;;8.88;1.73;;;;;;;;;;4950159;28;20251;-89
2022/09/17 10:32:45;;;;;;;7.93;1.85;;;;;;;;;;4950954;28;20345;-87
2022/09/17 10:35:14;;;;;;;7.25;1.67;;;;;;;;;;4952697;28;20206;-88
2022/09/17 10:37:42;;;;;;;9.75;2.13;;;;;;;;;;4950426;29;20679;-88
2022/09/17 10:40:20;;;;;;;9.35;2.20;;;;;;;;;;4949216;28;21148;-88
2022/09/17 10:42:46;;;;;;;7.90;1.63;;;;;;;;;;4949481;28;20200;-89
2022/09/17 10:45:29;;;;;;;6.75;1.98;;;;;;;;;;4949474;28;20210;-89
2022/09/17 10:47:56;;;;;;;5.60;1.70;;;;;;;;;;4949663;28;20181;-89
2022/09/17 10:50:27;;;;;;;6.35;1.60;;;;;;;;;;4950179;28;20296;-89
2022/09/17 10:52:57;;;;;;;8.20;1.85;;;;;;;;;;4950139;28;20200;-88
2022/09/17 10:55:34;;;;;;;7.32;1.60;;;;;;;;;;4949721;28;20209;-89
2022/09/17 10:58:06;;;;;;;7.93;1.70;;;;;;;;;;4950293;28;20593;-87
2022/09/17 11:00:33;;;;;;;6.30;1.67;;;;;;;;;;4949625;28;20204;-88
2022/09/17 11:03:19;;;;;;;4.13;1.33;;;;;;;;;;4948745;28;20300;-88
2022/09/17 11:06:06;;;;;;;8.95;2.08;;;;;;;;;;4951111;28;20229;-88
2022/09/17 11:08:38;;;;;;;7.30;1.42;;;;;;;;;;4950830;28;20188;-87
2022/09/17 11:11:08;;;;;;;8.65;2.03;;;;;;;;;;4948538;28;20189;-88
2022/09/17 11:13:37;;;;;;;6.25;1.67;;;;;;;;;;4950961;28;20561;-87
2022/09/17 11:16:06;;;;;;;6.47;1.60;;;;;;;;;;4949397;28;20308;-91
2022/09/17 11:18:35;;;;;;;7.00;1.75;;;;;;;;;;4950051;28;20544;-88
2022/09/17 11:21:07;;;;;;;6.45;1.75;;;;;;;;;;4949418;28;20216;-88
2022/09/17 11:23:46;;;;;;;5.18;1.30;;;;;;;;;;4947094;28;20698;-88
2022/09/17 11:26:27;;;;;;;8.07;1.95;;;;;;;;;;4949351;28;20719;-87
2022/09/17 11:29:08;;;;;;;5.47;1.30;;;;;;;;;;4949727;28;20205;-87
2022/09/17 11:31:37;;;;;;;4.05;1.08;;;;;;;;;;4948497;28;20212;-88
2022/09/17 11:34:03;;;;;;;5.65;1.42;;;;;;;;;;4943737;28;20414;-88
2022/09/17 11:36:37;;;;;;;5.65;1.33;;;;;;;;;;4944748;28;20269;-87
2022/09/17 11:39:30;;;;;;;4.03;1.35;;;;;;;;;;4943746;28;20193;-87
2022/09/17 11:41:58;;;;;;;5.25;1.42;;;;;;;;;;4924016;28;20412;-87
2022/09/17 11:44:36;;;;;;;6.22;1.48;;;;;;;;;;4946963;28;20497;-87
2022/09/17 11:47:08;;;;;;;6.45;1.52;;;;;;;;;;4945533;28;20641;-87
2022/09/17 11:49:38;;;;;;;6.07;1.60;;;;;;;;;;4945868;28;20608;-87
2022/09/17 11:52:11;;;;;;;6.80;1.80;;;;;;;;;;4946571;28;20220;-87
2022/09/17 11:54:40;;;;;;;6.22;1.65;;;;;;;;;;4945568;28;20223;-87
2022/09/17 11:57:11;;;;;;;3.20;1.02;;;;;;;;;;4945406;28;20214;-87
2022/09/17 11:59:40;;;;;;;4.90;1.70;;;;;;;;;;4945731;28;20446;-88
2022/09/17 12:02:26;;;;;;;4.95;1.35;;;;;;;;;;4944978;28;20305;-86
2022/09/17 12:05:02;;;;;;;6.03;1.25;;;;;;;;;;4945253;28;20185;-87
2022/09/17 12:07:31;;;;;;;4.97;1.20;;;;;;;;;;4945693;28;20556;-88
2022/09/17 12:10:24;;;;;;;3.72;1.10;;;;;;;;;;4945786;28;20477;-87
2022/09/17 12:12:52;;;;;;;4.07;1.10;;;;;;;;;;4946109;28;20205;-87
2022/09/17 12:15:21;;;;;;;2.92;0.88;;;;;;;;;;4945716;28;20578;-87
2022/09/17 12:18:03;;;;;;;6.50;1.35;;;;;;;;;;4945049;28;20182;-87
2022/09/17 12:20:31;;;;;;;6.38;1.40;;;;;;;;;;4944696;28;20264;-88
2022/09/17 12:22:59;;;;;;;7.28;1.63;;;;;;;;;;4945295;28;20189;-89
2022/09/17 12:25:32;;;;;;;6.50;1.60;;;;;;;;;;4944905;28;20272;-87
2022/09/17 12:28:07;;;;;;;5.82;1.15;;;;;;;;;;4945021;28;20200;-87
2022/09/17 12:30:41;;;;;;;5.38;1.30;;;;;;;;;;4944916;28;20252;-87
2022/09/17 12:33:25;;;;;;;7.30;1.30;;;;;;;;;;4945552;28;20195;-87
2022/09/17 12:35:58;;;;;;;3.67;1.10;;;;;;;;;;4944947;28;20220;-86
2022/09/17 12:38:39;;;;;;;7.93;1.80;;;;;;;;;;4945667;28;20722;-86
2022/09/17 12:41:08;;;;;;;3.78;0.90;;;;;;;;;;4944324;28;20211;-87
2022/09/17 12:43:41;;;;;;;4.88;1.20;;;;;;;;;;4944849;28;20193;-87
2022/09/17 12:46:22;;;;;;;5.00;1.55;;;;;;;;;;4943155;28;20228;-88
2022/09/17 12:48:54;;;;;;;5.25;1.65;;;;;;;;;;4944500;28;20244;-89
2022/09/17 12:51:27;;;;;;;6.32;1.30;;;;;;;;;;4944669;28;20535;-88
2022/09/17 12:53:56;;;;;;;3.87;1.30;;;;;;;;;;4944921;28;20281;-88
2022/09/17 12:56:34;;;;;;;6.68;1.30;;;;;;;;;;4944475;28;20210;-88
2022/09/17 12:59:00;;;;;;;5.68;1.40;;;;;;;;;;4945017;28;20200;-88
2022/09/17 13:01:33;;;;;;;4.45;1.13;;;;;;;;;;4942655;28;20193;-88
2022/09/17 13:04:22;;;;;;;4.78;1.55;;;;;;;;;;4944435;28;20193;-88
2022/09/17 13:06:51;;;;;;;6.20;1.33;;;;;;;;;;4927867;29;20279;-88
2022/09/17 13:09:32;;;;;;;5.67;1.10;;;;;;;;;;4945375;28;20304;-87
2022/09/17 13:12:23;;;;;;;2.63;1.13;;;;;;;;;;4946810;28;20185;-88
2022/09/17 13:15:04;;;;;;;7.85;1.60;;;;;;;;;;4945010;28;20256;-87
2022/09/17 13:17:37;;;;;;;3.73;1.03;;;;;;;;;;4947489;28;20209;-87
2022/09/17 13:20:13;;;;;;;4.10;1.30;;;;;;;;;;4947935;28;20549;-87
2022/09/17 13:22:46;;;;;;;6.63;1.40;;;;;;;;;;4947648;28;20181;-87
2022/09/17 13:25:13;;;;;;;2.87;1.10;;;;;;;;;;4947841;28;20214;-86
2022/09/17 13:27:40;;;;;;;5.37;1.17;;;;;;;;;;4946951;28;20190;-87
2022/09/17 13:30:07;;;;;;;4.70;1.10;;;;;;;;;;4950899;28;20216;-87
2022/09/17 13:32:36;;;;;;;5.87;1.70;;;;;;;;;;4947372;28;20456;-87
2022/09/17 13:35:13;;;;;;;6.27;1.20;;;;;;;;;;4946483;28;20188;-87
2022/09/17 13:37:39;;;;;;;7.93;2.23;;;;;;;;;;4947347;28;20185;-88
2022/09/17 13:40:21;;;;;;;7.57;1.60;;;;;;;;;;4947783;28;20542;-86
2022/09/17 13:42:48;;;;;;;4.90;1.70;;;;;;;;;;4942995;28;20707;-88
2022/09/17 13:45:15;;;;;;;5.97;1.83;;;;;;;;;;4942959;28;20236;-87
2022/09/17 13:47:50;;;;;;;4.73;1.57;;;;;;;;;;4942165;28;20185;-89
2022/09/17 13:50:27;;;;;;;5.73;1.67;;;;;;;;;;4950220;28;20293;-89
2022/09/17 13:52:55;;;;;;;4.70;1.47;;;;;;;;;;4950615;28;20201;-88
2022/09/17 13:55:34;;;;;;;9.57;1.70;;;;;;;;;;4935730;29;20353;-88
2022/09/17 13:58:01;;;;;;;4.93;1.70;;;;;;;;;;4947854;28;20331;-89
2022/09/17 14:00:46;;;;;;;7.17;1.40;;;;;;;;;;4943341;28;20185;-88
2022/09/17 14:03:33;;;;;;;6.67;1.73;;;;;;;;;;4949291;28;20197;-87
2022/09/17 14:06:06;;;;;;;5.50;1.30;;;;;;;;;;4951640;28;20671;-87
2022/09/17 14:08:37;;;;;;;3.80;1.40;;;;;;;;;;4950798;29;20292;-87
2022/09/17 14:11:28;;;;;;;3.57;1.30;;;;;;;;;;4951480;28;20249;-88
2022/09/17 14:13:54;;;;;;;8.50;1.73;;;;;;;;;;4952264;28;20249;-88
2022/09/17 14:16:35;;;;;;;3.23;1.20;;;;;;;;;;4952795;29;20205;-88
2022/09/17 14:19:23;;;;;;;3.63;1.30;;;;;;;;;;4952272;28;20207;-88
2022/09/17 14:21:56;;;;;;;5.97;1.33;;;;;;;;;;4949938;28;20189;-87
2022/09/17 14:24:22;;;;;;;3.57;0.90;;;;;;;;;;4951317;28;20200;-88
2022/09/17 14:26:48;;;;;;;4.20;0.93;;;;;;;;;;4947519;28;20217;-88
2022/09/17 14:29:28;;;;;;;6.07;1.23;;;;;;;;;;4952526;28;20207;-87
2022/09/17 14:31:55;;;;;;;4.07;1.20;;;;;;;;;;4955131;28;20193;-88
2022/09/17 14:34:22;;;;;;;7.90;1.60;;;;;;;;;;4954142;28;20202;-88
2022/09/17 14:36:49;;;;;;;6.17;1.40;;;;;;;;;;4951530;29;20722;-89
2022/09/17 14:39:19;;;;;;;4.17;0.90;;;;;;;;;;4929756;29;20217;-88
2022/09/17 14:41:45;;;;;;;4.17;1.17;;;;;;;;;;4953076;29;20209;-88
2022/09/17 14:44:17;;;;;;;5.17;1.20;;;;;;;;;;4957082;28;20236;-89
2022/09/17 14:46:48;;;;;;;8.47;1.60;;;;;;;;;;4958136;28;21199;-89
2022/09/17 14:49:18;;;;;;;4.83;1.23;;;;;;;;;;4951923;28;20244;-90
2022/09/17 14:51:44;;;;;;;5.10;1.27;;;;;;;;;;4950628;28;20233;-90
2022/09/17 15:04:58;;;;;;;5.87;3.47;;;;;;;;;;4952282;28;20254;-87
2022/09/17 15:07:25;;;;;;;10.40;6.40;;;;;;;;;;4952110;28;20712;-89
2022/09/17 15:09:54;;;;;;;14.63;11.07;;;;;;;;;;4952776;28;20252;-88
2022/09/17 15:12:22;;;;;;;11.87;7.63;;;;;;;;;;4952338;29;20193;-90
2022/09/17 15:14:48;;;;;;;6.70;3.47;;;;;;;;;;4952864;28;20186;-90
2022/09/17 15:17:15;;;;;;;4.30;2.10;;;;;;;;;;4953306;29;20190;-90
2022/09/17 15:23:20;;;;;;;3.17;1.33;;;;;;;;;;4941096;28;20193;-90
2022/09/17 15:25:49;;;;;;;5.13;1.50;;;;;;;;;;4945684;28;20217;-90
2022/09/17 15:28:23;;;;;;;6.17;1.93;;;;;;;;;;4968845;28;20206;-91
2022/09/17 15:30:55;;;;;;;5.30;2.13;;;;;;;;;;4950584;29;20209;-88
2022/09/17 15:36:26;;;;;;;7.33;2.60;;;;;;;;;;4949886;28;20684;-90
2022/09/17 15:38:53;;;;;;;5.93;1.97;;;;;;;;;;4954800;28;20547;-90
2022/09/17 15:41:32;;;;;;;6.27;1.93;;;;;;;;;;4952394;29;20230;-91
2022/09/17 15:44:13;;;;;;;5.27;2.40;;;;;;;;;;4953784;28;20288;-91
2022/09/17 15:46:42;;;;;;;5.80;1.80;;;;;;;;;;4953619;28;20259;-90
2022/09/17 15:49:28;;;;;;;4.37;1.40;;;;;;;;;;4937996;29;20271;-90
2022/09/17 15:52:14;;;;;;;4.47;1.27;;;;;;;;;;4955735;28;20182;-91
2022/09/17 15:54:40;;;;;;;7.03;1.37;;;;;;;;;;4953900;28;20310;-91
2022/09/17 15:57:13;;;;;;;7.43;1.77;;;;;;;;;;4954674;28;20214;-90
2022/09/17 15:59:39;;;;;;;6.67;1.43;;;;;;;;;;4953562;28;20571;-89
2022/09/17 16:02:05;;;;;;;4.23;1.30;;;;;;;;;;4938333;29;20284;-89
2022/09/17 16:04:33;;;;;;;7.73;1.50;;;;;;;;;;4951499;28;20312;-90
2022/09/17 16:07:11;;;;;;;5.43;1.30;;;;;;;;;;4953861;28;20863;-89
2022/09/17 16:09:37;;;;;;;5.63;1.10;;;;;;;;;;4966423;28;20618;-89
2022/09/17 16:12:04;;;;;;;6.53;1.50;;;;;;;;;;4952796;28;20193;-90
2022/09/17 16:14:31;;;;;;;5.93;1.63;;;;;;;;;;4952283;28;20189;-91
2022/09/17 16:16:58;;;;;;;6.50;1.20;;;;;;;;;;4951331;28;20308;-90
2022/09/17 16:19:24;;;;;;;3.80;1.10;;;;;;;;;;4951474;28;20642;-89
2022/09/17 16:21:50;;;;;;;4.87;1.67;;;;;;;;;;4950958;28;20201;-89
2022/09/17 16:24:16;;;;;;;7.33;1.70;;;;;;;;;;4955132;28;20774;-90
2022/09/17 16:26:44;;;;;;;4.03;1.30;;;;;;;;;;4951699;28;20668;-89
2022/09/17 16:29:17;;;;;;;8.37;1.80;;;;;;;;;;4951840;28;20224;-89
2022/09/17 16:31:43;;;;;;;5.70;1.33;;;;;;;;;;4966042;28;20249;-89
2022/09/17 16:34:09;;;;;;;10.30;2.50;;;;;;;;;;4952275;28;20190;-89
2022/09/17 16:36:38;;;;;;;8.17;1.87;;;;;;;;;;4951058;28;20201;-90
2022/09/17 16:39:04;;;;;;;6.77;1.60;;;;;;;;;;4948763;28;20552;-89
2022/09/17 16:41:31;;;;;;;7.97;1.67;;;;;;;;;;4951516;28;20209;-89
2022/09/17 16:43:57;;;;;;;8.93;2.03;;;;;;;;;;4953616;28;20228;-90
2022/09/17 16:46:23;;;;;;;5.60;1.50;;;;;;;;;;4937789;29;20353;-90
2022/09/17 16:48:49;;;;;;;6.80;2.10;;;;;;;;;;4953892;29;20186;-91
2022/09/17 16:51:15;;;;;;;7.00;1.80;;;;;;;;;;4953117;29;20332;-88
2022/09/17 16:53:41;;;;;;;5.90;2.10;;;;;;;;;;4951200;28;20280;-88
2022/09/17 16:56:08;;;;;;;6.53;2.00;;;;;;;;;;4951321;28;20352;-91
2022/09/17 16:58:34;;;;;;;4.87;1.60;;;;;;;;;;4953499;29;20221;-90
2022/09/17 17:01:08;;;;;;;4.67;1.60;;;;;;;;;;4954355;28;20272;-90
2022/09/17 17:03:34;;;;;;;7.07;1.53;;;;;;;;;;4952599;29;20211;-90
2022/09/17 17:06:00;;;;;;;8.07;1.40;;;;;;;;;;4957741;28;20221;-90
2022/09/17 17:08:27;;;;;;;6.70;1.50;;;;;;;;;;4951337;28;20212;-90
2022/09/17 17:10:54;;;;;;;7.20;1.50;;;;;;;;;;4950684;28;20230;-90
2022/09/17 17:13:22;;;;;;;6.73;1.70;;;;;;;;;;4950405;28;20189;-89
2022/09/17 17:18:33;;;;;;;3.90;1.30;;;;;;;;;;5003130;23;20252;-90
2022/09/17 17:21:12;;;;;;;7.00;1.73;;;;;;;;;;4949332;28;20256;-89
2022/09/17 17:23:47;;;;;;;7.13;1.30;;;;;;;;;;4963993;28;20192;-90
2022/09/17 17:26:13;;;;;;;6.93;1.53;;;;;;;;;;4951351;28;20276;-90
2022/09/17 17:28:43;;;;;;;7.43;1.90;;;;;;;;;;4949845;28;20186;-89
2022/09/17 17:31:11;;;;;;;9.00;2.00;;;;;;;;;;4950302;28;20201;-90
2022/09/17 17:34:04;;;;;;;5.87;1.50;;;;;;;;;;4948426;28;20265;-89
2022/09/17 17:37:14;;;;;;;6.80;1.57;;;;;;;;;;4948907;28;20248;-90
2022/09/17 17:45:52;;;;;;;7.87;1.40;;;;;;;;;;4954668;23;20230;-87
2022/09/17 17:48:26;;;;;;;6.40;1.67;;;;;;;;;;4976654;28;20208;-88
2022/09/17 17:50:52;;;;;;;7.23;1.53;;;;;;;;;;4967078;28;20595;-88
2022/09/17 17:53:18;;;;;;;4.27;1.30;;;;;;;;;;4971973;28;20291;-89
2022/09/17 17:55:57;;;;;;;6.70;1.40;;;;;;;;;;4968037;28;20701;-87
2022/09/17 17:58:25;;;;;;;6.83;1.40;;;;;;;;;;4979698;28;20236;-88
2022/09/17 18:00:54;;;;;;;8.03;1.90;;;;;;;;;;4963600;28;20195;-88
2022/09/17 18:06:49;;;;;;;7.93;1.73;;;;;;;;;;4972817;28;20219;-88
2022/09/17 18:09:37;;;;;;;;;;;;;;;;;;;;;
2022/09/17 18:12:18;;;;;;;10.00;1.90;;;;;;;;;;4966070;28;20546;-89
2022/09/17 18:14:44;;;;;;;6.57;1.90;;;;;;;;;;4980291;28;20275;-87
2022/09/17 18:17:10;;;;;;;7.57;1.70;;;;;;;;;;4963856;28;20205;-88
2022/09/17 18:20:25;;;;;;;7.70;1.60;;;;;;;;;;4963184;28;20208;-88
2022/09/17 18:23:01;;;;;;;8.03;1.50;;;;;;;;;;4964620;28;20689;-88
2022/09/17 18:25:27;;;;;;;8.03;2.17;;;;;;;;;;4962627;28;20217;-87
2022/09/17 18:28:19;;;;;;;7.87;1.77;;;;;;;;;;4966973;28;20193;-87
2022/09/17 18:30:45;;;;;;;8.00;1.93;;;;;;;;;;4982039;28;20209;-86
2022/09/17 18:33:41;;;;;;;7.10;1.70;;;;;;;;;;4965104;28;20615;-89
2022/09/17 18:36:19;;;;;;;11.53;2.37;;;;;;;;;;4980513;23;20277;-88
2022/09/17 18:39:24;;;;;;;7.03;1.67;;;;;;;;;;4948005;28;20676;-89
2022/09/17 18:41:52;;;;;;;7.17;1.70;;;;;;;;;;4936158;29;20965;-88
2022/09/17 18:47:21;;;;;;;8.83;2.27;;;;;;;;;;5044866;23;20298;-89
2022/09/17 18:56:25;;;;;;;8.17;1.97;;;;;;;;;;4892348;29;20214;-90
2022/09/17 18:59:02;;;;;;;8.70;1.83;;;;;;;;;;4941114;29;20221;-90
2022/09/17 19:01:30;;;;;;;6.90;1.87;;;;;;;;;;4950834;28;20189;-89
2022/09/17 19:04:35;;;;;;;7.43;2.00;;;;;;;;;;4945085;28;20182;-90
2022/09/17 19:07:22;;;;;;;7.90;1.43;;;;;;;;;;4946730;28;20775;-89
2022/09/17 19:10:08;;;;;;;7.30;1.60;;;;;;;;;;4947652;29;20235;-89
2022/09/17 19:12:41;;;;;;;7.73;1.63;;;;;;;;;;4951820;28;20193;-88
2022/09/17 19:18:31;;;;;;;8.87;1.80;;;;;;;;;;4940726;28;20198;-87
2022/09/17 19:21:12;;;;;;;6.83;1.60;;;;;;;;;;4949712;28;20566;-89